Time;durP1;ratioP1;P1;durP2;ratioP2;P2;SDS_P1;SDS_P2;PMS_P1;PMS_P2;Temp;Humidity;BMP_temperature;BMP_pressure;BME280_temperature;BME280_humidity;BME280_pressure;Samples;Min_cycle;Max_cycle;Signal;HPM_P1;HPM_P2
2023/07/21 00:01:03;;;;;;;8.70;4.70;;;13.40;99.90;;;;;;4861601;28;90162;-38
2023/07/21 00:03:30;;;;;;;4.20;3.90;;;13.40;99.90;;;;;;4863411;28;90247;-42
2023/07/21 00:05:56;;;;;;;4.75;3.92;;;13.40;99.90;;;;;;4863564;28;89829;-45
2023/07/21 00:08:24;;;;;;;5.55;3.80;;;13.40;99.90;;;;;;4863472;28;87845;-40
2023/07/21 00:10:50;;;;;;;5.57;3.95;;;13.40;99.90;;;;;;4863827;28;89465;-40
2023/07/21 00:13:15;;;;;;;6.88;4.47;;;13.50;99.90;;;;;;4863525;28;89213;-40
2023/07/21 00:15:42;;;;;;;4.53;4.00;;;13.50;99.90;;;;;;4862382;28;90116;-43
2023/07/21 00:18:07;;;;;;;4.05;3.45;;;13.50;99.90;;;;;;4863454;28;90882;-48
2023/07/21 00:20:34;;;;;;;5.68;4.32;;;13.50;99.90;;;;;;4863703;28;90602;-46
2023/07/21 00:23:00;;;;;;;4.68;4.28;;;13.50;99.90;;;;;;4864608;28;90268;-34
2023/07/21 00:25:26;;;;;;;5.80;4.53;;;13.50;99.90;;;;;;4863736;28;89768;-35
2023/07/21 00:27:52;;;;;;;4.03;3.72;;;13.50;99.90;;;;;;4863473;28;89499;-36
2023/07/21 00:30:21;;;;;;;6.78;3.88;;;13.50;99.90;;;;;;4862775;28;91413;-47
2023/07/21 00:32:46;;;;;;;5.00;4.32;;;13.50;99.90;;;;;;4863773;28;90125;-44
2023/07/21 00:35:12;;;;;;;5.07;4.45;;;13.50;99.90;;;;;;4863727;28;90628;-39
2023/07/21 00:37:39;;;;;;;8.25;4.25;;;13.50;99.90;;;;;;4863394;28;89069;-39
2023/07/21 00:40:09;;;;;;;4.78;3.80;;;13.50;99.90;;;;;;4862956;28;89202;-39
2023/07/21 00:42:38;;;;;;;9.05;5.32;;;13.40;99.90;;;;;;4863799;28;91458;-36
2023/07/21 00:45:04;;;;;;;5.03;4.15;;;13.50;99.90;;;;;;4862866;28;89955;-43
2023/07/21 00:47:30;;;;;;;4.70;4.25;;;13.50;99.90;;;;;;4863721;28;87850;-38
2023/07/21 00:49:56;;;;;;;5.60;4.43;;;13.50;99.90;;;;;;4862917;28;89309;-37
2023/07/21 00:52:23;;;;;;;5.50;4.82;;;13.50;99.90;;;;;;4863278;28;89670;-34
2023/07/21 00:54:49;;;;;;;5.78;4.03;;;13.50;99.90;;;;;;4862076;28;90123;-47
2023/07/21 00:57:16;;;;;;;6.22;3.97;;;13.50;99.90;;;;;;4863037;28;89645;-37
2023/07/21 00:59:41;;;;;;;5.57;4.63;;;13.50;99.90;;;;;;4863864;28;89851;-39
2023/07/21 01:02:07;;;;;;;6.45;3.75;;;13.50;99.90;;;;;;4861456;28;89877;-45
2023/07/21 01:04:34;;;;;;;5.57;4.15;;;13.50;99.90;;;;;;4863119;28;89617;-42
2023/07/21 01:07:03;;;;;;;6.82;4.70;;;13.50;99.90;;;;;;4862440;28;89019;-34
2023/07/21 01:09:30;;;;;;;4.88;4.35;;;13.50;99.90;;;;;;4862935;28;91052;-43
2023/07/21 01:11:56;;;;;;;7.00;4.63;;;13.50;99.90;;;;;;4862859;28;89480;-36
2023/07/21 01:14:21;;;;;;;5.35;4.85;;;13.50;99.90;;;;;;4862647;28;90114;-37
2023/07/21 01:16:48;;;;;;;5.00;4.50;;;13.50;99.90;;;;;;4862277;28;89535;-38
2023/07/21 01:19:15;;;;;;;6.05;5.43;;;13.50;99.90;;;;;;4862649;28;90528;-49
2023/07/21 01:21:48;;;;;;;9.00;5.32;;;13.50;99.90;;;;;;4862928;28;89625;-38
2023/07/21 01:24:37;;;;;;;6.18;4.75;;;13.50;99.90;;;;;;4861364;28;89113;-41
2023/07/21 01:27:05;;;;;;;6.88;6.18;;;13.50;99.90;;;;;;4851716;28;88320;-35
2023/07/21 01:29:34;;;;;;;6.13;5.53;;;13.40;99.90;;;;;;4861382;28;90061;-40
2023/07/21 01:32:02;;;;;;;7.47;5.68;;;13.40;99.90;;;;;;4861971;28;90240;-35
2023/07/21 01:34:31;;;;;;;8.60;5.40;;;13.40;99.90;;;;;;4858116;28;90546;-44
2023/07/21 01:36:57;;;;;;;8.20;6.78;;;13.40;99.90;;;;;;4862487;28;88641;-47
2023/07/21 01:39:23;;;;;;;7.20;6.10;;;13.40;99.90;;;;;;4861895;28;90447;-45
2023/07/21 01:41:49;;;;;;;9.40;6.63;;;13.40;99.90;;;;;;4862469;28;89298;-38
2023/07/21 01:44:15;;;;;;;6.68;5.97;;;13.40;99.90;;;;;;4862174;28;89729;-37
2023/07/21 01:46:41;;;;;;;4.75;4.28;;;13.40;99.90;;;;;;4862680;28;89748;-43
2023/07/21 01:49:07;;;;;;;5.43;4.65;;;13.40;99.90;;;;;;4862660;28;90448;-41
2023/07/21 01:51:35;;;;;;;7.28;5.05;;;13.40;99.90;;;;;;4861831;28;89404;-35
2023/07/21 01:54:07;;;;;;;5.13;4.07;;;13.40;99.90;;;;;;4861815;28;89394;-42
2023/07/21 01:56:45;;;;;;;3.75;3.08;;;13.30;99.90;;;;;;4862091;28;89455;-45
2023/07/21 01:59:12;;;;;;;3.65;3.35;;;13.20;99.90;;;;;;4861850;28;88940;-42
2023/07/21 02:01:39;;;;;;;3.65;3.00;;;13.20;99.90;;;;;;4862062;28;89334;-39
2023/07/21 02:04:05;;;;;;;5.22;3.83;;;13.20;99.90;;;;;;4862471;28;89872;-36
2023/07/21 02:06:32;;;;;;;3.65;2.95;;;13.20;99.90;;;;;;4861777;28;89130;-35
2023/07/21 02:08:57;;;;;;;5.47;3.40;;;13.20;99.90;;;;;;4861226;28;90491;-50
2023/07/21 02:11:24;;;;;;;4.07;3.13;;;13.10;99.90;;;;;;4862428;28;89718;-36
2023/07/21 02:13:50;;;;;;;6.13;3.50;;;13.10;99.90;;;;;;4861411;28;89681;-48
2023/07/21 02:16:15;;;;;;;4.78;3.38;;;13.10;99.90;;;;;;4862499;28;88098;-43
2023/07/21 02:18:42;;;;;;;5.03;2.97;;;13.10;99.90;;;;;;4861898;28;91044;-37
2023/07/21 02:21:08;;;;;;;8.00;3.40;;;13.10;99.90;;;;;;4860990;28;90542;-37
2023/07/21 02:23:34;;;;;;;6.57;3.08;;;13.10;99.90;;;;;;4862040;28;92104;-38
2023/07/21 02:26:00;;;;;;;3.63;3.33;;;13.10;99.90;;;;;;4862103;28;90382;-34
2023/07/21 02:28:25;;;;;;;3.53;2.80;;;13.10;99.90;;;;;;4861329;28;90298;-48
2023/07/21 02:31:02;;;;;;;5.30;3.47;;;13.10;99.90;;;;;;4862660;28;90121;-34
2023/07/21 02:33:29;;;;;;;6.57;4.18;;;13.10;99.90;;;;;;4860912;28;89762;-35
2023/07/21 02:35:55;;;;;;;4.57;3.55;;;13.10;99.90;;;;;;4861624;28;89605;-44
2023/07/21 02:38:21;;;;;;;5.30;4.65;;;13.10;99.90;;;;;;4861992;28;90174;-37
2023/07/21 02:40:47;;;;;;;5.88;4.10;;;13.10;99.90;;;;;;4865184;28;89640;-40
2023/07/21 02:43:12;;;;;;;6.18;4.20;;;13.10;99.90;;;;;;4865069;28;89619;-36
2023/07/21 02:45:38;;;;;;;4.75;3.42;;;13.20;99.90;;;;;;4864819;28;90529;-39
2023/07/21 02:48:08;;;;;;;4.32;3.90;;;13.10;99.90;;;;;;4864656;28;90149;-48
2023/07/21 02:50:34;;;;;;;2.22;1.90;;;13.10;99.90;;;;;;4864970;28;90235;-39
2023/07/21 02:52:59;;;;;;;3.85;2.72;;;13.10;99.90;;;;;;4865621;28;89451;-39
2023/07/21 02:55:25;;;;;;;4.05;3.65;;;13.10;99.90;;;;;;4865045;28;88473;-44
2023/07/21 02:57:52;;;;;;;4.15;3.45;;;13.10;99.90;;;;;;4865724;28;90767;-35
2023/07/21 03:00:18;;;;;;;5.60;4.20;;;13.10;99.90;;;;;;4865511;28;89835;-38
2023/07/21 03:02:44;;;;;;;4.90;4.47;;;13.10;99.90;;;;;;4865299;28;89992;-34
2023/07/21 03:05:10;;;;;;;6.43;4.57;;;13.10;99.90;;;;;;4864957;28;89163;-40
2023/07/21 03:07:36;;;;;;;5.85;4.53;;;13.10;99.90;;;;;;4864219;28;90232;-44
2023/07/21 03:10:02;;;;;;;5.22;4.40;;;13.10;99.90;;;;;;4864016;28;90591;-42
2023/07/21 03:12:28;;;;;;;7.95;5.50;;;13.10;99.90;;;;;;4865062;28;90379;-44
2023/07/21 03:14:54;;;;;;;4.90;4.50;;;13.10;99.90;;;;;;4864664;28;89119;-38
2023/07/21 03:17:19;;;;;;;9.30;4.90;;;13.10;99.90;;;;;;4865555;28;90548;-42
2023/07/21 03:19:45;;;;;;;7.22;5.70;;;13.10;99.90;;;;;;4863639;28;89988;-40
2023/07/21 03:22:15;;;;;;;7.78;6.15;;;13.10;99.90;;;;;;4865211;28;89345;-40
2023/07/21 03:24:41;;;;;;;8.82;6.30;;;13.10;99.90;;;;;;4864342;28;88680;-44
2023/07/21 03:27:07;;;;;;;7.35;6.35;;;13.10;99.90;;;;;;4865419;28;91067;-35
2023/07/21 03:29:32;;;;;;;7.82;6.53;;;13.10;99.90;;;;;;4864023;28;90058;-35
2023/07/21 03:31:58;;;;;;;9.15;5.90;;;13.00;99.90;;;;;;4864649;28;89402;-43
2023/07/21 03:34:24;;;;;;;6.60;5.82;;;13.10;99.90;;;;;;4863524;28;90985;-42
2023/07/21 03:36:52;;;;;;;6.75;5.75;;;13.00;99.90;;;;;;4864220;28;89695;-42
2023/07/21 03:39:18;;;;;;;7.47;6.13;;;13.10;99.90;;;;;;4863422;28;89589;-39
2023/07/21 03:41:44;;;;;;;7.70;6.70;;;13.10;99.90;;;;;;4878871;28;89247;-33
2023/07/21 03:44:10;;;;;;;7.00;6.00;;;13.00;99.90;;;;;;4863761;28;90051;-47
2023/07/21 03:46:36;;;;;;;8.35;6.45;;;13.10;99.90;;;;;;4862989;28;91597;-32
2023/07/21 03:49:02;;;;;;;8.57;6.43;;;13.10;99.90;;;;;;4863937;28;90004;-40
2023/07/21 03:51:27;;;;;;;9.55;7.35;;;13.10;99.90;;;;;;4863448;28;89834;-34
2023/07/21 03:53:53;;;;;;;7.53;6.13;;;13.00;99.90;;;;;;4865081;28;88870;-34
2023/07/21 03:56:19;;;;;;;6.80;6.10;;;13.00;99.90;;;;;;4864217;28;90576;-36
2023/07/21 03:58:44;;;;;;;7.95;7.15;;;13.10;99.90;;;;;;4864518;28;90476;-33
2023/07/21 04:01:10;;;;;;;6.95;6.35;;;13.00;99.90;;;;;;4864316;28;91757;-34
2023/07/21 04:03:36;;;;;;;8.07;5.85;;;13.10;99.90;;;;;;4864306;28;90084;-35
2023/07/21 04:06:08;;;;;;;6.72;5.97;;;13.10;99.90;;;;;;4864570;28;90054;-39
2023/07/21 04:08:34;;;;;;;8.23;5.25;;;13.10;99.90;;;;;;4864150;28;88794;-38
2023/07/21 04:11:00;;;;;;;3.60;3.00;;;13.10;99.90;;;;;;4864181;28;90129;-33
2023/07/21 04:13:26;;;;;;;5.55;3.95;;;13.10;99.90;;;;;;4863927;28;87738;-39
2023/07/21 04:15:52;;;;;;;4.85;4.25;;;13.00;99.90;;;;;;4864582;28;90309;-34
2023/07/21 04:18:18;;;;;;;5.35;4.85;;;13.10;99.90;;;;;;4863360;28;90483;-40
2023/07/21 04:20:44;;;;;;;7.45;5.13;;;13.00;99.90;;;;;;4864560;28;89594;-35
2023/07/21 04:23:09;;;;;;;7.45;4.13;;;13.00;99.90;;;;;;4862923;28;90016;-41
2023/07/21 04:25:35;;;;;;;4.55;3.85;;;12.90;99.90;;;;;;4864565;28;90527;-34
2023/07/21 04:28:01;;;;;;;7.20;4.05;;;12.90;99.90;;;;;;4864029;28;89273;-33
2023/07/21 04:30:28;;;;;;;4.38;3.97;;;12.90;99.90;;;;;;4863411;28;90128;-46
2023/07/21 04:32:54;;;;;;;4.60;4.15;;;12.90;99.90;;;;;;4864022;28;88063;-33
2023/07/21 04:35:19;;;;;;;5.65;4.00;;;12.90;99.90;;;;;;4862791;28;90284;-34
2023/07/21 04:37:45;;;;;;;4.28;3.88;;;12.90;99.90;;;;;;4863927;28;89645;-46
2023/07/21 04:40:11;;;;;;;7.00;3.70;;;13.00;99.90;;;;;;4863208;28;89343;-40
2023/07/21 04:42:37;;;;;;;8.45;4.15;;;13.10;99.90;;;;;;4864252;28;88231;-33
2023/07/21 04:45:03;;;;;;;4.80;4.30;;;13.10;99.90;;;;;;4862920;28;90728;-37
2023/07/21 04:47:28;;;;;;;5.05;4.53;;;13.10;99.90;;;;;;4863071;28;90400;-34
2023/07/21 04:49:54;;;;;;;7.13;4.57;;;13.10;99.90;;;;;;4863099;28;88970;-33
2023/07/21 04:52:20;;;;;;;4.68;4.20;;;13.30;99.90;;;;;;4863828;28;89886;-35
2023/07/21 04:54:46;;;;;;;6.25;5.28;;;13.40;99.90;;;;;;4863306;28;90294;-34
2023/07/21 04:57:12;;;;;;;8.15;6.43;;;13.50;99.90;;;;;;4863630;28;89304;-40
2023/07/21 04:59:38;;;;;;;5.32;4.45;;;13.70;99.90;;;;;;4863139;28;90032;-48
2023/07/21 05:02:04;;;;;;;6.60;4.88;;;13.90;99.90;;;;;;4862520;28;89940;-35
2023/07/21 05:04:29;;;;;;;5.40;4.55;;;14.10;99.90;;;;;;4863095;28;91165;-43
2023/07/21 05:06:55;;;;;;;4.03;3.33;;;14.20;99.90;;;;;;4863018;28;90048;-48
2023/07/21 05:09:21;;;;;;;6.05;4.35;;;14.30;99.90;;;;;;4863421;28;89693;-35
2023/07/21 05:11:46;;;;;;;6.70;4.55;;;14.40;99.90;;;;;;4862527;28;90558;-36
2023/07/21 05:14:13;;;;;;;5.40;4.70;;;14.60;99.90;;;;;;4863385;28;89580;-41
2023/07/21 05:16:39;;;;;;;6.50;4.35;;;14.70;99.90;;;;;;4863169;28;90194;-37
2023/07/21 05:19:05;;;;;;;5.70;3.95;;;14.90;99.90;;;;;;4863163;28;90008;-37
2023/07/21 05:21:30;;;;;;;5.60;4.25;;;15.10;99.90;;;;;;4862981;28;87954;-38
2023/07/21 05:23:56;;;;;;;5.88;3.63;;;15.30;99.90;;;;;;4863021;28;90421;-44
2023/07/21 05:26:22;;;;;;;4.35;3.65;;;15.50;99.90;;;;;;4862714;28;90044;-37
2023/07/21 05:28:53;;;;;;;5.00;4.07;;;15.60;99.90;;;;;;4861881;28;89505;-34
2023/07/21 05:31:20;;;;;;;6.40;3.45;;;15.70;99.90;;;;;;4863343;28;89283;-36
2023/07/21 05:33:46;;;;;;;4.40;3.83;;;15.80;99.90;;;;;;4862463;28;90727;-36
2023/07/21 05:36:12;;;;;;;5.35;3.92;;;15.70;99.90;;;;;;4861937;28;90850;-34
2023/07/21 05:38:38;;;;;;;4.50;2.72;;;15.80;99.90;;;;;;4863014;28;91180;-33
2023/07/21 05:41:05;;;;;;;5.22;3.25;;;16.00;99.90;;;;;;4862991;28;89360;-32
2023/07/21 05:43:31;;;;;;;4.35;2.63;;;16.00;99.90;;;;;;4862924;28;90477;-33
2023/07/21 05:45:57;;;;;;;3.97;3.25;;;16.20;99.90;;;;;;4862613;28;89770;-42
2023/07/21 05:48:26;;;;;;;8.07;4.10;;;16.40;99.90;;;;;;4851704;28;89262;-33
2023/07/21 05:50:52;;;;;;;4.00;3.20;;;16.50;99.90;;;;;;4862045;28;89865;-45
2023/07/21 05:53:19;;;;;;;4.22;3.08;;;16.60;99.90;;;;;;4856784;28;90058;-43
2023/07/21 05:55:46;;;;;;;3.97;3.10;;;16.60;99.90;;;;;;4861138;28;90530;-34
2023/07/21 05:58:12;;;;;;;4.35;3.53;;;16.80;99.90;;;;;;4859699;28;89887;-36
2023/07/21 06:00:41;;;;;;;6.05;3.05;;;16.90;99.90;;;;;;4860552;28;89271;-38
2023/07/21 06:03:07;;;;;;;4.88;3.35;;;17.00;99.90;;;;;;4860918;28;90325;-36
2023/07/21 06:05:36;;;;;;;3.78;2.90;;;17.20;99.90;;;;;;4860464;28;89180;-33
2023/07/21 06:08:05;;;;;;;4.15;3.30;;;17.30;99.90;;;;;;4861172;28;89452;-35
2023/07/21 06:10:33;;;;;;;7.15;3.65;;;17.50;99.90;;;;;;4860019;28;88154;-34
2023/07/21 06:12:59;;;;;;;3.63;3.33;;;17.50;99.90;;;;;;4860986;28;90595;-39
2023/07/21 06:15:25;;;;;;;3.63;3.15;;;17.70;99.90;;;;;;4860003;28;89581;-33
2023/07/21 06:17:52;;;;;;;5.88;3.05;;;17.80;99.90;;;;;;4861176;28;89813;-33
2023/07/21 06:20:20;;;;;;;3.55;2.83;;;18.00;99.90;;;;;;4860351;28;89619;-44
2023/07/21 06:22:47;;;;;;;5.70;3.33;;;18.20;99.90;;;;;;4860778;28;90088;-41
2023/07/21 06:25:12;;;;;;;5.57;2.40;;;18.50;99.90;;;;;;4859512;28;90835;-36
2023/07/21 06:27:38;;;;;;;3.10;1.75;;;18.50;99.90;;;;;;4860496;28;90533;-33
2023/07/21 06:30:04;;;;;;;3.90;2.60;;;18.80;99.90;;;;;;4860553;28;89501;-32
2023/07/21 06:32:30;;;;;;;4.20;2.50;;;19.10;99.90;;;;;;4860005;28;91298;-40
2023/07/21 06:34:56;;;;;;;2.92;2.35;;;19.20;99.90;;;;;;4860053;28;90088;-37
2023/07/21 06:37:21;;;;;;;2.47;2.28;;;19.20;99.90;;;;;;4859661;28;91149;-36
2023/07/21 06:39:48;;;;;;;2.88;1.75;;;19.40;99.90;;;;;;4860627;28;88736;-39
2023/07/21 06:42:14;;;;;;;2.00;1.90;;;19.40;99.90;;;;;;4860747;28;90077;-36
2023/07/21 06:44:40;;;;;;;3.17;2.55;;;19.60;99.90;;;;;;4859349;28;89778;-35
2023/07/21 06:47:06;;;;;;;3.88;3.08;;;19.70;99.90;;;;;;4860807;28;88467;-33
2023/07/21 06:49:31;;;;;;;2.97;2.00;;;19.80;99.90;;;;;;4857109;28;90133;-32
2023/07/21 06:51:57;;;;;;;2.75;2.05;;;19.90;99.90;;;;;;4858935;28;89662;-40
2023/07/21 06:54:23;;;;;;;3.45;1.95;;;20.00;99.90;;;;;;4859257;28;88853;-36
2023/07/21 06:56:49;;;;;;;3.63;1.92;;;19.70;99.90;;;;;;4859526;28;89217;-40
2023/07/21 06:59:15;;;;;;;4.63;2.53;;;20.00;99.90;;;;;;4860168;28;88264;-42
2023/07/21 07:01:41;;;;;;;4.78;2.40;;;20.10;99.90;;;;;;4859638;28;90351;-37
2023/07/21 07:04:06;;;;;;;2.40;1.98;;;20.10;99.90;;;;;;4859892;28;89490;-40
2023/07/21 07:06:32;;;;;;;2.72;2.08;;;20.40;99.90;;;;;;4860642;28;90271;-34
2023/07/21 07:08:58;;;;;;;2.00;1.90;;;20.30;99.90;;;;;;4858651;28;91352;-34
2023/07/21 07:11:23;;;;;;;3.58;2.53;;;20.40;99.90;;;;;;4859987;28;90575;-40
2023/07/21 07:13:49;;;;;;;4.15;2.30;;;20.60;99.90;;;;;;4858607;28;90621;-40
2023/07/21 07:16:15;;;;;;;1.92;1.70;;;20.90;99.90;;;;;;4860605;28;90284;-37
2023/07/21 07:18:41;;;;;;;4.93;1.90;;;21.40;99.90;;;;;;4860670;28;88887;-32
2023/07/21 07:21:07;;;;;;;3.95;1.70;;;21.60;99.90;;;;;;4858842;28;90474;-40
2023/07/21 07:23:32;;;;;;;1.92;1.83;;;21.90;99.90;;;;;;4859913;28;89880;-35
2023/07/21 07:25:58;;;;;;;4.28;2.42;;;22.00;99.90;;;;;;4860269;28;89978;-33
2023/07/21 07:28:24;;;;;;;1.55;1.45;;;21.70;99.90;;;;;;4863038;28;89882;-43
2023/07/21 07:30:50;;;;;;;2.25;1.95;;;21.90;99.90;;;;;;4863121;28;90110;-35
2023/07/21 07:33:16;;;;;;;2.25;1.95;;;22.20;99.90;;;;;;4861133;28;89866;-36
2023/07/21 07:35:49;;;;;;;2.75;1.80;;;22.00;99.90;;;;;;4863241;28;90106;-40
2023/07/21 07:38:18;;;;;;;2.60;2.03;;;22.00;99.90;;;;;;4861215;28;89557;-32
2023/07/21 07:40:46;;;;;;;2.15;1.95;;;22.10;99.90;;;;;;4863846;28;90344;-36
2023/07/21 07:43:11;;;;;;;3.42;1.73;;;22.10;99.90;;;;;;4862913;28;89800;-38
2023/07/21 07:45:37;;;;;;;3.17;1.65;;;21.90;99.90;;;;;;4862336;28;90793;-39
2023/07/21 07:48:03;;;;;;;2.30;1.70;;;22.00;99.90;;;;;;4862559;28;89807;-41
2023/07/21 07:50:29;;;;;;;2.05;1.63;;;22.00;99.90;;;;;;4862733;28;90618;-39
2023/07/21 07:52:59;;;;;;;8.07;2.15;;;22.10;99.90;;;;;;4862481;28;89911;-34
2023/07/21 07:55:25;;;;;;;2.33;1.60;;;22.10;99.90;;;;;;4861741;28;89418;-38
2023/07/21 07:57:51;;;;;;;2.83;2.10;;;22.30;99.90;;;;;;4862319;28;89031;-43
2023/07/21 08:00:17;;;;;;;2.45;1.80;;;22.80;99.90;;;;;;4857315;28;90158;-37
2023/07/21 08:02:43;;;;;;;1.25;0.90;;;22.80;99.90;;;;;;4860073;28;91084;-42
2023/07/21 08:05:10;;;;;;;1.50;1.40;;;23.20;99.90;;;;;;4862414;28;89991;-35
2023/07/21 08:07:36;;;;;;;1.33;1.25;;;23.60;99.90;;;;;;4905288;23;88394;-34
2023/07/21 08:10:03;;;;;;;1.13;1.02;;;23.30;99.00;;;;;;4881062;28;90291;-41
2023/07/21 08:12:28;;;;;;;3.38;2.05;;;23.70;96.80;;;;;;4881365;28;90307;-34
2023/07/21 08:14:54;;;;;;;2.95;1.80;;;23.90;93.60;;;;;;4880661;28;90166;-39
2023/07/21 08:17:20;;;;;;;2.00;1.10;;;23.80;91.30;;;;;;4881005;28;89641;-42
2023/07/21 08:19:45;;;;;;;1.13;1.02;;;24.00;89.20;;;;;;4881176;28;90421;-38
2023/07/21 08:22:11;;;;;;;1.80;1.50;;;24.20;86.50;;;;;;4880723;28;89497;-41
2023/07/21 08:24:37;;;;;;;1.38;1.00;;;24.40;84.60;;;;;;4880248;28;89859;-32
2023/07/21 08:27:03;;;;;;;1.20;1.10;;;24.40;83.20;;;;;;4880811;28;90534;-35
2023/07/21 08:29:28;;;;;;;1.52;1.40;;;24.50;81.60;;;;;;4880468;28;90742;-36
2023/07/21 08:31:54;;;;;;;1.95;1.20;;;24.10;77.30;;;;;;4880517;28;89737;-39
2023/07/21 08:34:20;;;;;;;1.33;1.23;;;24.20;77.80;;;;;;4880258;28;89414;-37
2023/07/21 08:36:46;;;;;;;1.83;1.67;;;24.50;78.60;;;;;;4880579;28;89353;-34
2023/07/21 08:39:11;;;;;;;3.13;1.25;;;24.70;77.70;;;;;;4880233;28;90378;-36
2023/07/21 08:41:46;;;;;;;1.50;1.40;;;24.90;78.00;;;;;;4880681;28;88943;-33
2023/07/21 08:44:13;;;;;;;1.25;1.15;;;24.90;81.70;;;;;;4880376;28;89398;-37
2023/07/21 08:46:39;;;;;;;1.10;1.02;;;25.10;77.00;;;;;;4880185;28;88798;-39
2023/07/21 08:49:07;;;;;;;2.95;2.00;;;25.10;76.80;;;;;;4881048;28;90671;-37
2023/07/21 08:51:32;;;;;;;1.10;1.00;;;24.60;73.30;;;;;;4878322;28;90997;-33
2023/07/21 08:53:58;;;;;;;1.80;1.30;;;24.30;77.50;;;;;;4880043;28;90459;-41
2023/07/21 08:56:24;;;;;;;1.92;1.23;;;24.70;80.70;;;;;;4880679;28;90105;-32
2023/07/21 08:58:49;;;;;;;1.35;1.25;;;24.80;72.90;;;;;;4880310;28;90845;-34
2023/07/21 09:01:16;;;;;;;1.40;1.30;;;24.80;75.80;;;;;;4880217;28;91026;-33
2023/07/21 09:03:46;;;;;;;1.90;1.13;;;24.80;73.70;;;;;;4878991;28;90061;-33
2023/07/21 09:06:14;;;;;;;0.93;0.93;;;25.00;72.50;;;;;;4879581;28;89566;-40
2023/07/21 09:08:40;;;;;;;1.38;1.27;;;25.00;73.30;;;;;;4879492;28;90206;-38
2023/07/21 09:11:07;;;;;;;1.00;0.95;;;25.00;71.20;;;;;;4879994;28;89267;-38
2023/07/21 09:13:33;;;;;;;1.50;1.40;;;25.20;70.50;;;;;;4877573;28;90567;-34
2023/07/21 09:16:00;;;;;;;1.88;1.42;;;25.10;71.10;;;;;;4879396;28;89519;-37
2023/07/21 09:18:33;;;;;;;1.73;1.63;;;25.10;69.40;;;;;;4878889;28;91158;-37
2023/07/21 09:20:59;;;;;;;1.30;1.20;;;24.80;70.50;;;;;;4879075;28;90175;-34
2023/07/21 09:23:26;;;;;;;3.38;1.27;;;25.00;70.90;;;;;;4878437;28;90473;-40
2023/07/21 09:25:54;;;;;;;1.35;1.17;;;25.10;74.60;;;;;;4879814;28;89597;-36
2023/07/21 09:28:21;;;;;;;2.25;1.38;;;25.30;71.60;;;;;;4878121;28;90811;-38
2023/07/21 09:30:51;;;;;;;7.63;1.70;;;25.10;71.10;;;;;;4872210;28;89874;-34
2023/07/21 09:33:24;;;;;;;2.30;2.10;;;25.40;69.70;;;;;;4860522;28;89439;-36
2023/07/21 09:36:03;;;;;;;1.30;1.20;;;24.60;68.30;;;;;;4860093;28;89233;-40
2023/07/21 09:38:29;;;;;;;1.85;1.13;;;23.90;68.40;;;;;;4874983;28;89952;-41
2023/07/21 09:41:00;;;;;;;1.20;1.10;;;24.40;69.30;;;;;;4861765;28;91316;-33
2023/07/21 09:43:28;;;;;;;2.65;1.42;;;24.90;67.80;;;;;;4864329;28;90337;-36
2023/07/21 09:45:55;;;;;;;2.17;1.85;;;24.70;68.70;;;;;;4864435;28;88824;-35
2023/07/21 09:48:21;;;;;;;1.57;1.37;;;24.70;69.90;;;;;;4863761;28;91071;-38
2023/07/21 09:50:48;;;;;;;1.20;1.10;;;25.00;69.30;;;;;;4865456;28;89820;-34
2023/07/21 09:53:19;;;;;;;1.38;1.10;;;24.70;69.50;;;;;;4873774;28;89735;-40
2023/07/21 09:55:48;;;;;;;1.27;1.10;;;24.80;69.30;;;;;;4865964;28;89298;-37
2023/07/21 09:58:16;;;;;;;1.25;1.10;;;24.90;69.10;;;;;;4869249;28;90277;-33
2023/07/21 10:00:44;;;;;;;1.35;1.25;;;24.80;68.20;;;;;;4870305;28;89308;-37
2023/07/21 10:03:11;;;;;;;2.00;1.27;;;24.10;69.30;;;;;;4879404;28;89373;-36
2023/07/21 10:05:39;;;;;;;2.13;1.90;;;23.90;70.40;;;;;;4879729;28;89647;-35
2023/07/21 10:08:06;;;;;;;1.85;1.58;;;24.50;72.30;;;;;;4871098;28;90311;-35
2023/07/21 10:10:32;;;;;;;1.20;1.10;;;24.70;70.90;;;;;;4864620;28;89254;-34
2023/07/21 10:13:04;;;;;;;1.42;1.23;;;24.90;71.60;;;;;;4875973;28;90339;-42
2023/07/21 10:15:31;;;;;;;5.22;1.40;;;24.50;70.50;;;;;;4875279;28;88282;-33
2023/07/21 10:18:06;;;;;;;1.80;1.55;;;24.30;68.30;;;;;;4876149;28;90122;-40
2023/07/21 10:20:49;;;;;;;2.47;1.67;;;24.50;69.90;;;;;;4877830;28;90125;-35
2023/07/21 10:23:38;;;;;;;2.00;1.13;;;24.10;66.70;;;;;;4876206;28;90271;-37
2023/07/21 10:26:07;;;;;;;1.27;1.17;;;24.00;71.70;;;;;;4876303;28;89359;-37
2023/07/21 10:28:44;;;;;;;4.00;1.17;;;24.30;71.10;;;;;;4876926;28;90009;-42
2023/07/21 10:31:25;;;;;;;1.48;1.38;;;24.50;69.30;;;;;;4873421;28;90853;-44
2023/07/21 10:34:03;;;;;;;2.45;1.85;;;24.70;70.80;;;;;;4872258;28;90923;-35
2023/07/21 10:36:51;;;;;;;1.83;1.73;;;24.60;71.70;;;;;;4873534;28;88730;-34
2023/07/21 10:39:23;;;;;;;1.88;1.77;;;23.90;70.10;;;;;;4878421;28;89793;-38
2023/07/21 10:41:50;;;;;;;3.05;2.30;;;24.20;71.10;;;;;;4877325;28;90010;-35
2023/07/21 10:44:17;;;;;;;2.65;1.77;;;23.80;70.80;;;;;;4868255;28;89421;-36
2023/07/21 10:46:45;;;;;;;1.95;1.58;;;23.80;70.40;;;;;;4866449;28;89620;-36
2023/07/21 10:49:15;;;;;;;2.33;1.45;;;23.80;70.40;;;;;;4862166;28;90592;-40
2023/07/21 10:51:42;;;;;;;1.58;1.48;;;23.80;70.90;;;;;;4861919;28;89416;-32
2023/07/21 10:54:09;;;;;;;2.53;1.95;;;23.60;71.60;;;;;;4862595;28;89362;-38
2023/07/21 10:56:42;;;;;;;1.63;1.30;;;23.70;71.00;;;;;;4861122;28;89191;-34
2023/07/21 10:59:12;;;;;;;1.75;1.05;;;23.60;70.60;;;;;;4862018;28;91545;-32
2023/07/21 11:01:41;;;;;;;1.83;1.55;;;23.20;71.70;;;;;;4874263;28;89944;-35
2023/07/21 11:04:07;;;;;;;1.70;1.60;;;23.40;73.10;;;;;;4868413;28;89563;-40
2023/07/21 11:06:42;;;;;;;2.60;2.40;;;23.40;72.40;;;;;;4870673;28;89326;-33
2023/07/21 11:09:14;;;;;;;1.90;1.75;;;23.20;70.90;;;;;;4881333;28;89828;-37
2023/07/21 11:11:45;;;;;;;1.65;1.55;;;23.40;72.60;;;;;;4879991;28;90962;-34
2023/07/21 11:14:14;;;;;;;1.88;1.65;;;23.40;74.00;;;;;;4862950;28;88427;-40
2023/07/21 11:17:00;;;;;;;2.67;1.98;;;23.40;75.90;;;;;;4866209;28;88614;-37
2023/07/21 11:19:31;;;;;;;2.17;2.00;;;23.30;75.10;;;;;;4881463;28;89729;-40
2023/07/21 11:21:57;;;;;;;3.55;1.58;;;23.20;75.10;;;;;;4863543;28;90780;-34
2023/07/21 11:24:28;;;;;;;3.03;2.42;;;23.10;81.10;;;;;;4875333;28;91226;-33
2023/07/21 11:26:56;;;;;;;2.58;2.00;;;23.20;80.50;;;;;;4875871;28;89054;-35
2023/07/21 11:29:24;;;;;;;3.47;2.45;;;23.20;81.70;;;;;;4871329;28;90190;-34
2023/07/21 11:31:49;;;;;;;;;;;23.10;78.10;;;;;;4878749;28;89794;-39
2023/07/21 11:34:19;;;;;;;2.33;2.13;;;22.80;75.90;;;;;;4876697;28;89791;-34
2023/07/21 11:36:46;;;;;;;2.88;2.35;;;22.40;76.40;;;;;;4877030;28;89755;-37
2023/07/21 11:39:14;;;;;;;1.70;1.60;;;22.70;83.30;;;;;;4874635;28;89884;-39
2023/07/21 11:41:40;;;;;;;2.35;2.15;;;22.60;87.60;;;;;;4875371;28;89399;-37
2023/07/21 11:44:20;;;;;;;2.70;2.50;;;22.80;89.40;;;;;;4876451;28;89605;-33
2023/07/21 11:47:04;;;;;;;2.08;1.98;;;23.00;84.70;;;;;;4869430;28;90310;-36
2023/07/21 11:49:31;;;;;;;2.78;2.40;;;22.80;84.20;;;;;;4875747;28;90206;-34
2023/07/21 11:52:02;;;;;;;1.88;1.73;;;22.70;80.60;;;;;;4880357;28;91080;-38
2023/07/21 11:54:30;;;;;;;3.28;2.28;;;22.70;80.70;;;;;;4875947;28;89485;-38
2023/07/21 11:56:57;;;;;;;1.70;1.60;;;22.00;75.70;;;;;;4875867;28;90270;-34
2023/07/21 11:59:26;;;;;;;2.30;2.10;;;22.20;78.70;;;;;;4875534;28;90684;-33
2023/07/21 12:01:54;;;;;;;1.73;1.63;;;22.20;79.50;;;;;;4879913;28;89854;-34
2023/07/21 12:04:21;;;;;;;4.38;1.83;;;22.30;78.90;;;;;;4881386;28;89728;-33
2023/07/21 12:06:48;;;;;;;2.43;2.23;;;22.40;80.60;;;;;;4879535;28;90331;-36
2023/07/21 12:09:13;;;;;;;2.78;2.30;;;22.80;87.60;;;;;;4883942;28;91106;-41
2023/07/21 12:11:39;;;;;;;2.45;1.95;;;22.90;78.80;;;;;;4879060;28;90079;-37
2023/07/21 12:14:05;;;;;;;2.40;2.00;;;22.50;74.40;;;;;;4880147;28;90812;-38
2023/07/21 12:16:33;;;;;;;2.10;1.90;;;22.40;79.20;;;;;;4880983;28;89996;-33
2023/07/21 12:19:00;;;;;;;3.65;1.95;;;22.50;79.80;;;;;;4873560;28;90987;-33
2023/07/21 12:21:26;;;;;;;2.42;2.22;;;22.60;80.50;;;;;;4874097;28;90016;-33
2023/07/21 12:23:52;;;;;;;2.28;1.55;;;22.70;83.00;;;;;;4862169;28;88632;-38
2023/07/21 12:26:19;;;;;;;1.77;1.58;;;22.70;77.70;;;;;;4874503;28;88764;-40
2023/07/21 12:28:45;;;;;;;3.22;1.90;;;22.40;76.40;;;;;;4865949;28;90910;-39
2023/07/21 12:31:11;;;;;;;2.00;1.80;;;22.40;76.60;;;;;;4880716;28;89905;-39
2023/07/21 12:33:39;;;;;;;2.70;2.38;;;22.30;79.60;;;;;;4876111;28;89751;-34
2023/07/21 12:36:05;;;;;;;3.60;3.08;;;22.40;80.50;;;;;;4860931;28;88185;-38
2023/07/21 12:38:31;;;;;;;3.35;2.20;;;22.30;80.00;;;;;;4860625;28;90321;-42
2023/07/21 12:40:57;;;;;;;3.10;2.35;;;22.70;86.90;;;;;;4872708;28;90485;-33
2023/07/21 12:43:23;;;;;;;2.33;2.13;;;22.90;88.40;;;;;;4878264;28;89265;-35
2023/07/21 12:45:49;;;;;;;2.05;1.92;;;23.10;85.20;;;;;;4868800;28;88107;-37
2023/07/21 12:48:14;;;;;;;2.60;2.40;;;22.50;82.90;;;;;;4865716;28;91252;-37